createdAt,value
2018-06-11T00:01:03.149Z,21.00
2018-06-11T00:03:31.241Z,20.57
2018-06-11T00:05:59.618Z,22.47
2018-06-11T00:08:27.789Z,21.33
2018-06-11T00:10:55.969Z,18.77
2018-06-11T00:13:24.077Z,21.03
2018-06-11T00:15:52.282Z,22.10
2018-06-11T00:18:20.423Z,20.00
2018-06-11T00:20:48.550Z,21.80
2018-06-11T00:23:16.779Z,25.03
2018-06-11T00:25:44.958Z,22.60
2018-06-11T00:28:13.114Z,24.40
2018-06-11T00:30:41.266Z,23.00
2018-06-11T00:33:09.418Z,23.67
2018-06-11T00:35:37.650Z,23.47
2018-06-11T00:38:05.863Z,22.27
2018-06-11T00:40:34.343Z,22.60
2018-06-11T00:43:02.682Z,22.10
2018-06-11T00:45:30.784Z,20.97
2018-06-11T00:47:58.928Z,25.73
2018-06-11T00:50:27.033Z,23.83
2018-06-11T00:52:55.141Z,23.57
2018-06-11T00:55:24.294Z,23.83
2018-06-11T00:57:52.774Z,23.90
2018-06-11T01:00:20.914Z,24.50
2018-06-11T01:02:49.049Z,25.30
2018-06-11T01:05:17.198Z,23.93
2018-06-11T01:07:45.378Z,24.03
2018-06-11T01:10:13.611Z,24.63
2018-06-11T01:12:41.902Z,24.93
2018-06-11T01:15:10.039Z,23.97
2018-06-11T01:17:38.157Z,25.37
2018-06-11T01:20:06.436Z,24.10
2018-06-11T01:22:34.577Z,27.17
2018-06-11T01:25:02.704Z,25.00
2018-06-11T01:27:30.821Z,25.57
2018-06-11T01:29:58.931Z,28.17
2018-06-11T01:32:27.096Z,25.63
2018-06-11T01:34:55.281Z,25.20
2018-06-11T01:37:23.450Z,27.43
2018-06-11T01:39:51.558Z,26.30
2018-06-11T01:42:19.663Z,25.63
2018-06-11T01:44:47.785Z,28.50
2018-06-11T01:47:15.926Z,25.47
2018-06-11T01:49:44.179Z,26.37
2018-06-11T01:52:12.297Z,27.17
2018-06-11T01:54:40.563Z,27.47
2018-06-11T01:57:09.029Z,26.80
2018-06-11T01:59:37.146Z,25.00
2018-06-11T02:02:05.342Z,26.07
2018-06-11T02:04:33.498Z,25.23
2018-06-11T02:07:01.734Z,27.10
2018-06-11T02:09:29.992Z,25.47
2018-06-11T02:11:58.183Z,25.60
2018-06-11T02:14:26.420Z,25.77
2018-06-11T02:16:54.538Z,24.57
2018-06-11T02:19:22.686Z,25.80
2018-06-11T02:21:50.895Z,23.80
2018-06-11T02:24:18.974Z,25.13
2018-06-11T02:26:47.197Z,26.27
2018-06-11T02:29:15.423Z,24.13
2018-06-11T02:31:43.630Z,23.77
2018-06-11T02:34:12.485Z,24.97
2018-06-11T02:36:40.669Z,23.77
2018-06-11T02:39:09.651Z,24.90
2018-06-11T02:41:37.747Z,23.47
2018-06-11T02:44:05.867Z,25.73
2018-06-11T02:46:33.965Z,25.40
2018-06-11T02:49:02.202Z,25.03
2018-06-11T02:51:30.407Z,26.23
2018-06-11T02:53:58.783Z,24.17
2018-06-11T02:56:26.994Z,24.30
2018-06-11T02:58:55.294Z,25.30
2018-06-11T03:01:23.630Z,25.30
2018-06-11T03:03:51.786Z,25.27
2018-06-11T03:06:19.959Z,30.50
2018-06-11T03:08:48.130Z,26.30
2018-06-11T03:11:16.409Z,24.93
2018-06-11T03:13:44.657Z,26.43
2018-06-11T03:16:13.059Z,25.17
2018-06-11T03:18:41.300Z,24.03
2018-06-11T03:21:09.673Z,25.40
2018-06-11T03:23:37.788Z,24.50
2018-06-11T03:26:06.014Z,23.00
2018-06-11T03:28:34.289Z,23.00
2018-06-11T03:31:02.357Z,25.63
2018-06-11T03:33:30.559Z,23.63
2018-06-11T03:35:59.070Z,24.30
2018-06-11T03:38:27.241Z,24.37
2018-06-11T03:40:55.460Z,25.07
2018-06-11T03:43:23.633Z,22.17
2018-06-11T03:45:51.749Z,22.07
2018-06-11T03:48:19.837Z,22.17
2018-06-11T03:50:48.047Z,21.20
2018-06-11T03:53:16.569Z,21.97
2018-06-11T03:55:44.721Z,20.53
2018-06-11T03:58:18.191Z,21.03
2018-06-11T04:00:46.447Z,22.40
2018-06-11T04:03:14.658Z,19.50
2018-06-11T04:05:42.887Z,18.73
2018-06-11T04:08:11.138Z,20.37
2018-06-11T04:10:39.592Z,20.67
2018-06-11T04:13:08.421Z,22.43
2018-06-11T04:15:37.146Z,21.07
2018-06-11T04:18:05.674Z,19.60
2018-06-11T04:20:33.915Z,21.03
2018-06-11T04:23:02.138Z,21.43
2018-06-11T04:25:30.419Z,22.13
2018-06-11T04:27:58.572Z,19.87
2018-06-11T04:30:26.768Z,20.73
2018-06-11T04:32:55.046Z,21.87
2018-06-11T04:35:23.536Z,21.73
2018-06-11T04:37:51.882Z,18.97
2018-06-11T04:40:20.666Z,14.00
2018-06-11T04:42:49.585Z,12.57
2018-06-11T04:45:17.935Z,13.13
2018-06-11T04:47:46.122Z,14.67
2018-06-11T04:50:15.072Z,12.33
2018-06-11T04:52:43.364Z,11.27
2018-06-11T04:55:11.647Z,11.50
2018-06-11T04:57:39.781Z,10.63
2018-06-11T05:00:07.980Z,12.10
2018-06-11T05:02:36.263Z,12.13
2018-06-11T05:05:04.431Z,12.30
2018-06-11T05:07:32.604Z,12.50
2018-06-11T05:10:01.000Z,11.53
2018-06-11T05:12:29.670Z,11.87
2018-06-11T05:14:57.842Z,12.77
2018-06-11T05:17:26.282Z,13.37
2018-06-11T05:19:54.430Z,13.80
2018-06-11T05:22:22.568Z,15.37
2018-06-11T05:24:51.447Z,14.40
2018-06-11T05:27:19.589Z,16.50
2018-06-11T05:29:48.854Z,17.47
2018-06-11T05:32:17.074Z,15.90
2018-06-11T05:34:45.277Z,14.97
2018-06-11T05:37:13.485Z,13.50
2018-06-11T05:39:41.630Z,13.90
2018-06-11T05:42:09.842Z,14.53
2018-06-11T05:44:38.283Z,13.60
2018-06-11T05:47:06.417Z,10.63
2018-06-11T05:49:34.616Z,10.80
2018-06-11T05:52:02.877Z,11.10
2018-06-11T05:54:31.049Z,10.70
2018-06-11T05:56:59.165Z,11.13
2018-06-11T05:59:27.846Z,12.43
2018-06-11T06:01:56.023Z,12.60
2018-06-11T06:04:24.387Z,11.83
2018-06-11T06:06:52.876Z,15.17
2018-06-11T06:09:21.088Z,10.20
2018-06-11T06:11:55.920Z,9.67
2018-06-11T06:14:24.861Z,12.47
2018-06-11T06:16:54.660Z,9.13
2018-06-11T06:19:23.263Z,9.43
2018-06-11T06:21:52.488Z,9.07
2018-06-11T06:24:21.038Z,9.07
2018-06-11T06:26:49.575Z,8.83
2018-06-11T06:29:18.083Z,8.77
2018-06-11T06:31:46.323Z,9.77
2018-06-11T06:34:14.966Z,9.67
2018-06-11T06:36:43.630Z,8.70
2018-06-11T06:39:12.713Z,7.80
2018-06-11T06:41:40.834Z,8.20
2018-06-11T06:44:09.118Z,8.77
2018-06-11T06:46:37.545Z,7.40
2018-06-11T06:49:05.693Z,9.20
2018-06-11T06:51:34.063Z,6.93
2018-06-11T06:54:02.390Z,8.53
2018-06-11T06:56:30.624Z,7.40
2018-06-11T06:58:58.926Z,8.43
2018-06-11T07:01:27.164Z,8.27
2018-06-11T07:03:55.329Z,9.27
2018-06-11T07:06:23.676Z,10.80
2018-06-11T07:08:51.948Z,10.47
2018-06-11T07:11:20.159Z,10.97
2018-06-11T07:13:48.255Z,8.83
2018-06-11T07:16:16.473Z,9.23
2018-06-11T07:18:44.694Z,8.90
2018-06-11T07:21:12.812Z,9.70
2018-06-11T07:23:40.989Z,10.50
2018-06-11T07:26:09.222Z,10.20
2018-06-11T07:28:37.535Z,10.33
2018-06-11T07:31:05.839Z,11.10
2018-06-11T07:33:34.045Z,12.43
2018-06-11T07:36:02.252Z,12.47
2018-06-11T07:38:30.482Z,11.10
2018-06-11T07:40:58.714Z,10.90
2018-06-11T07:43:26.838Z,13.03
2018-06-11T07:45:55.212Z,13.00
2018-06-11T07:48:23.353Z,13.47
2018-06-11T07:50:51.612Z,13.27
2018-06-11T07:53:19.657Z,15.73
2018-06-11T07:55:47.896Z,14.50
2018-06-11T07:58:15.986Z,16.50
2018-06-11T08:00:44.118Z,16.60
2018-06-11T08:03:12.459Z,17.83
2018-06-11T08:05:41.067Z,17.77
2018-06-11T08:08:09.411Z,19.17
2018-06-11T08:10:37.977Z,17.23
2018-06-11T08:13:06.165Z,18.20
2018-06-11T08:15:34.454Z,16.00
2018-06-11T08:18:02.707Z,16.50
2018-06-11T08:20:31.027Z,17.97
2018-06-11T08:22:59.241Z,17.13
2018-06-11T08:25:27.388Z,17.00
2018-06-11T08:27:55.617Z,17.67
2018-06-11T08:30:23.787Z,17.70
2018-06-11T08:32:51.917Z,16.60
2018-06-11T08:35:19.983Z,14.60
2018-06-11T08:37:48.218Z,16.20
2018-06-11T08:40:16.438Z,16.77
2018-06-11T08:42:44.626Z,17.50
2018-06-11T08:45:12.834Z,16.13
2018-06-11T08:47:41.558Z,16.57
2018-06-11T08:50:11.337Z,15.50
2018-06-11T08:52:39.961Z,17.30
2018-06-11T08:55:08.294Z,16.10
2018-06-11T08:57:36.517Z,16.60
2018-06-11T09:00:06.353Z,16.30
2018-06-11T09:02:34.647Z,17.30
2018-06-11T09:05:02.909Z,15.80
2018-06-11T09:07:31.066Z,14.37
2018-06-11T09:09:59.229Z,14.37
2018-06-11T09:12:27.395Z,13.27
2018-06-11T09:14:55.669Z,14.30
2018-06-11T09:17:23.835Z,15.47
2018-06-11T09:19:52.030Z,15.30
2018-06-11T09:22:20.282Z,16.30
2018-06-11T09:24:48.358Z,17.33
2018-06-11T09:27:16.449Z,17.90
2018-06-11T09:29:44.812Z,14.13
2018-06-11T09:32:13.050Z,15.57
2018-06-11T09:34:41.282Z,15.27
2018-06-11T09:37:09.439Z,15.83
2018-06-11T09:39:37.834Z,17.43
2018-06-11T09:42:06.013Z,17.53
2018-06-11T09:44:34.239Z,16.50
2018-06-11T09:47:02.446Z,15.10
2018-06-11T09:49:30.630Z,13.83
2018-06-11T09:51:58.765Z,16.80
2018-06-11T09:54:26.982Z,15.40
2018-06-11T09:56:55.114Z,16.80
2018-06-11T09:59:23.313Z,17.97
2018-06-11T10:01:51.595Z,15.27
2018-06-11T10:04:19.927Z,15.70
2018-06-11T10:06:48.761Z,18.33
2018-06-11T10:09:17.107Z,16.30
2018-06-11T10:11:45.262Z,17.90
2018-06-11T10:14:13.441Z,14.80
2018-06-11T10:16:41.639Z,16.10
2018-06-11T10:19:09.882Z,14.70
2018-06-11T10:21:37.991Z,14.60
2018-06-11T10:24:06.486Z,17.10
2018-06-11T10:26:34.723Z,19.00
2018-06-11T10:29:03.068Z,19.53
2018-06-11T10:31:31.216Z,17.90
2018-06-11T10:33:59.409Z,17.97
2018-06-11T10:36:27.561Z,17.37
2018-06-11T10:38:55.812Z,15.10
2018-06-11T10:41:24.006Z,16.37
2018-06-11T10:43:52.473Z,16.63
2018-06-11T10:46:20.661Z,16.80
2018-06-11T10:48:48.746Z,17.80
2018-06-11T10:51:16.975Z,18.33
2018-06-11T10:53:45.148Z,15.73
2018-06-11T10:56:13.320Z,18.43
2018-06-11T10:58:41.620Z,16.63
2018-06-11T11:01:09.797Z,17.43
2018-06-11T11:03:37.877Z,17.83
2018-06-11T11:06:06.093Z,34.20
2018-06-11T11:08:34.263Z,17.73
2018-06-11T11:11:02.441Z,18.13
2018-06-11T11:13:30.612Z,18.20
2018-06-11T11:15:58.822Z,18.57
2018-06-11T11:18:27.014Z,18.90
2018-06-11T11:20:55.681Z,15.97
2018-06-11T11:23:23.993Z,17.40
2018-06-11T11:25:52.275Z,17.83
2018-06-11T11:28:20.471Z,14.87
2018-06-11T11:30:48.725Z,15.53
2018-06-11T11:33:16.922Z,20.90
2018-06-11T11:35:45.124Z,18.30
2018-06-11T11:38:13.354Z,16.80
2018-06-11T11:40:41.545Z,17.30
2018-06-11T11:43:09.741Z,14.93
2018-06-11T11:45:37.922Z,18.37
2018-06-11T11:48:06.092Z,14.83
2018-06-11T11:50:34.337Z,16.20
2018-06-11T11:53:02.579Z,16.57
2018-06-11T11:55:30.882Z,14.67
2018-06-11T11:57:59.412Z,16.50
2018-06-11T12:00:27.615Z,14.77
2018-06-11T12:02:55.829Z,19.60
2018-06-11T12:05:24.082Z,15.03
2018-06-11T12:07:52.418Z,14.47
2018-06-11T12:10:20.613Z,13.53
2018-06-11T12:12:48.805Z,13.47
2018-06-11T12:15:17.206Z,13.43
2018-06-11T12:17:45.438Z,13.73
2018-06-11T12:20:13.603Z,14.03
2018-06-11T12:22:41.755Z,18.90
2018-06-11T12:25:10.069Z,15.13
2018-06-11T12:27:38.317Z,15.27
2018-06-11T12:30:06.526Z,13.90
2018-06-11T12:32:34.729Z,12.13
2018-06-11T12:35:03.355Z,15.80
2018-06-11T12:37:33.385Z,13.87
2018-06-11T12:40:02.361Z,13.37
2018-06-11T12:42:30.642Z,13.03
2018-06-11T12:44:59.001Z,12.90
2018-06-11T12:47:27.242Z,13.93
2018-06-11T12:49:55.438Z,13.40
2018-06-11T12:52:23.687Z,13.80
2018-06-11T12:54:51.969Z,13.30
2018-06-11T12:57:20.747Z,13.37
2018-06-11T12:59:48.946Z,11.73
2018-06-11T13:02:17.102Z,12.40
2018-06-11T13:04:45.331Z,20.63
2018-06-11T13:07:13.562Z,12.70
2018-06-11T13:09:41.792Z,11.80
2018-06-11T13:12:09.848Z,13.23
2018-06-11T13:14:38.030Z,13.27
2018-06-11T13:17:07.195Z,15.00
2018-06-11T13:19:35.402Z,14.37
2018-06-11T13:22:04.105Z,12.93
2018-06-11T13:24:32.415Z,13.73
2018-06-11T13:27:00.546Z,14.50
2018-06-11T13:29:28.719Z,13.27
2018-06-11T13:31:57.095Z,12.73
2018-06-11T13:34:25.318Z,13.27
2018-06-11T13:36:53.389Z,14.20
2018-06-11T13:39:21.642Z,15.90
2018-06-11T13:41:49.751Z,14.30
2018-06-11T13:44:17.921Z,12.97
2018-06-11T13:46:46.413Z,15.47
2018-06-11T13:49:14.870Z,15.43
2018-06-11T13:51:43.079Z,16.00
2018-06-11T13:54:11.669Z,15.27
2018-06-11T13:56:40.103Z,14.87
2018-06-11T13:59:08.865Z,15.43
2018-06-11T14:01:37.088Z,16.20
2018-06-11T14:04:05.555Z,15.90
2018-06-11T14:06:33.870Z,16.63
2018-06-11T14:09:02.382Z,17.40
2018-06-11T14:11:30.626Z,25.63
2018-06-11T14:13:58.865Z,16.13
2018-06-11T14:16:27.410Z,13.57
2018-06-11T14:18:55.686Z,13.67
2018-06-11T14:21:24.063Z,13.53
2018-06-11T14:23:52.291Z,13.97
2018-06-11T14:26:20.508Z,13.43
2018-06-11T14:28:48.787Z,13.87
2018-06-11T14:31:17.246Z,13.60
2018-06-11T14:33:45.544Z,12.50
2018-06-11T14:36:13.981Z,11.10
2018-06-11T14:38:42.440Z,10.87
2018-06-11T14:41:11.263Z,10.67
2018-06-11T14:43:39.634Z,9.83
2018-06-11T14:46:08.359Z,9.30
2018-06-11T14:48:36.727Z,9.10
2018-06-11T14:51:04.959Z,8.87
2018-06-11T14:53:33.329Z,7.33
2018-06-11T14:56:01.753Z,9.17
2018-06-11T14:58:30.106Z,7.43
2018-06-11T15:00:58.482Z,8.53
2018-06-11T15:03:26.703Z,11.13
2018-06-11T15:05:55.093Z,8.80
2018-06-11T15:08:23.429Z,9.63
2018-06-11T15:10:51.896Z,9.07
2018-06-11T15:13:20.214Z,8.83
2018-06-11T15:15:48.504Z,12.43
2018-06-11T15:18:16.842Z,12.60
2018-06-11T15:20:45.082Z,8.13
2018-06-11T15:23:13.308Z,7.50
2018-06-11T15:25:41.594Z,6.53
2018-06-11T15:28:09.769Z,6.83
2018-06-11T15:30:38.066Z,7.97
2018-06-11T15:33:06.326Z,6.73
2018-06-11T15:35:34.756Z,7.20
2018-06-11T15:38:03.034Z,8.90
2018-06-11T15:40:31.316Z,6.70
2018-06-11T15:42:59.565Z,6.33
2018-06-11T15:45:27.867Z,4.97
2018-06-11T15:47:56.115Z,9.07
2018-06-11T15:50:24.277Z,5.93
2018-06-11T15:52:52.416Z,5.97
2018-06-11T15:55:27.505Z,5.83
2018-06-11T15:57:55.743Z,7.07
2018-06-11T16:00:24.050Z,6.43
2018-06-11T16:02:52.155Z,7.13
2018-06-11T16:05:20.881Z,6.90
2018-06-11T16:07:49.114Z,7.80
2018-06-11T16:10:17.309Z,7.40
2018-06-11T16:12:45.567Z,7.93
2018-06-11T16:15:13.732Z,9.07
2018-06-11T16:17:42.090Z,9.93
2018-06-11T16:20:10.414Z,7.37
2018-06-11T16:22:38.619Z,6.60
2018-06-11T16:25:06.827Z,8.47
2018-06-11T16:27:35.119Z,15.83
2018-06-11T16:30:03.447Z,8.80
2018-06-11T16:32:31.852Z,9.63
2018-06-11T16:35:00.260Z,9.80
2018-06-11T16:37:28.684Z,8.60
2018-06-11T16:39:57.010Z,8.77
2018-06-11T16:42:25.368Z,7.53
2018-06-11T16:44:53.642Z,9.03
2018-06-11T16:47:21.890Z,7.23
2018-06-11T16:49:50.238Z,8.50
2018-06-11T16:52:18.599Z,7.70
2018-06-11T16:54:47.118Z,9.97
2018-06-11T16:57:15.383Z,8.30
2018-06-11T16:59:43.683Z,6.13
2018-06-11T17:02:12.031Z,9.83
2018-06-11T17:04:40.721Z,11.17
2018-06-11T17:07:08.958Z,12.03
2018-06-11T17:09:37.526Z,13.67
2018-06-11T17:12:05.958Z,12.30
2018-06-11T17:14:34.387Z,10.20
2018-06-11T17:17:02.941Z,12.60
2018-06-11T17:19:31.233Z,14.47
2018-06-11T17:21:59.843Z,15.07
2018-06-11T17:24:28.203Z,15.83
2018-06-11T17:26:56.809Z,16.40
2018-06-11T17:29:25.172Z,21.10
2018-06-11T17:31:56.564Z,21.00
2018-06-11T17:34:25.381Z,23.20
2018-06-11T17:36:53.898Z,20.93
2018-06-11T17:39:22.261Z,22.60
2018-06-11T17:41:51.614Z,18.97
2018-06-11T17:44:19.737Z,18.80
2018-06-11T17:46:48.343Z,17.73
2018-06-11T17:49:16.726Z,17.80
2018-06-11T17:51:45.164Z,18.10
2018-06-11T17:54:13.485Z,17.87
2018-06-11T17:56:41.881Z,17.27
2018-06-11T17:59:10.078Z,19.97
2018-06-11T18:01:38.747Z,25.30
2018-06-11T18:04:07.235Z,24.27
2018-06-11T18:06:36.153Z,23.00
2018-06-11T18:09:07.822Z,21.77
2018-06-11T18:11:36.904Z,27.73
2018-06-11T18:14:05.914Z,21.50
2018-06-11T18:16:35.624Z,21.83
2018-06-11T18:19:03.944Z,23.50
2018-06-11T18:21:32.259Z,21.97
2018-06-11T18:24:00.661Z,22.80
2018-06-11T18:26:28.938Z,18.23
2018-06-11T18:28:57.282Z,18.43
2018-06-11T18:31:25.728Z,17.47
2018-06-11T18:33:53.964Z,18.67
2018-06-11T18:36:22.408Z,17.73
2018-06-11T18:38:50.717Z,17.83
2018-06-11T18:41:19.181Z,19.97
2018-06-11T18:43:47.648Z,21.27
2018-06-11T18:46:16.172Z,27.93
2018-06-11T18:48:44.560Z,24.70
2018-06-11T18:51:12.900Z,24.80
2018-06-11T18:53:41.229Z,27.67
2018-06-11T18:56:09.538Z,25.40
2018-06-11T18:58:38.089Z,26.73
2018-06-11T19:01:06.345Z,26.30
2018-06-11T19:03:35.085Z,29.37
2018-06-11T19:06:03.560Z,33.57
2018-06-11T19:08:32.676Z,32.30
2018-06-11T19:11:01.081Z,33.40
2018-06-11T19:13:29.432Z,33.10
2018-06-11T19:15:57.801Z,31.00
2018-06-11T19:18:26.155Z,34.60
2018-06-11T19:20:54.612Z,35.90
2018-06-11T19:23:22.920Z,35.60
2018-06-11T19:25:51.310Z,32.87
2018-06-11T19:28:19.769Z,33.90
2018-06-11T19:30:48.250Z,36.43
2018-06-11T19:33:16.679Z,34.93
2018-06-11T19:35:45.511Z,34.10
2018-06-11T19:38:13.797Z,34.60
2018-06-11T19:40:42.104Z,32.00
2018-06-11T19:43:10.434Z,37.70
2018-06-11T19:45:38.757Z,32.43
2018-06-11T19:48:06.991Z,32.27
2018-06-11T19:50:35.217Z,29.23
2018-06-11T19:53:03.607Z,32.53
2018-06-11T19:55:31.931Z,33.00
2018-06-11T19:58:00.146Z,27.40
2018-06-11T20:00:28.473Z,29.47
2018-06-11T20:02:56.663Z,26.77
2018-06-11T20:05:24.883Z,28.07
2018-06-11T20:07:53.091Z,30.57
2018-06-11T20:10:21.340Z,31.73
2018-06-11T20:12:49.594Z,30.83
2018-06-11T20:15:17.780Z,28.40
2018-06-11T20:17:46.069Z,28.93
2018-06-11T20:20:14.627Z,28.37
2018-06-11T20:22:43.282Z,33.40
2018-06-11T20:25:11.508Z,29.30
2018-06-11T20:27:39.728Z,27.07
2018-06-11T20:30:07.975Z,30.37
2018-06-11T20:32:36.175Z,33.40
2018-06-11T20:35:04.456Z,40.20
2018-06-11T20:37:32.815Z,29.20
2018-06-11T20:40:01.164Z,30.30
2018-06-11T20:42:29.561Z,29.70
2018-06-11T20:44:57.814Z,30.27
2018-06-11T20:47:26.210Z,36.33
2018-06-11T20:49:54.545Z,31.57
2018-06-11T20:52:22.930Z,38.60
2018-06-11T20:54:51.277Z,43.87
2018-06-11T20:57:19.497Z,50.53
2018-06-11T20:59:47.715Z,53.80
2018-06-11T21:02:15.970Z,56.10
2018-06-11T21:04:44.629Z,58.57
2018-06-11T21:07:12.986Z,55.67
2018-06-11T21:09:41.307Z,58.47
2018-06-11T21:12:09.441Z,60.57
2018-06-11T21:14:37.516Z,62.20
2018-06-11T21:17:05.938Z,63.80
2018-06-11T21:19:34.218Z,56.30
2018-06-11T21:22:02.422Z,51.77
2018-06-11T21:24:30.698Z,62.03
2018-06-11T21:26:59.134Z,59.80
2018-06-11T21:29:27.393Z,61.90
2018-06-11T21:31:55.714Z,62.60
2018-06-11T21:34:23.968Z,57.47
2018-06-11T21:36:52.085Z,70.00
2018-06-11T21:39:20.382Z,64.30
2018-06-11T21:41:49.147Z,66.90
2018-06-11T21:44:17.326Z,63.60
2018-06-11T21:46:45.579Z,76.50
2018-06-11T21:49:13.922Z,77.00
2018-06-11T21:51:42.305Z,77.40
2018-06-11T21:54:10.550Z,71.13
2018-06-11T21:56:38.925Z,75.77
2018-06-11T21:59:07.213Z,78.77
2018-06-11T22:01:35.354Z,73.20
2018-06-11T22:04:03.739Z,74.03
2018-06-11T22:06:31.778Z,75.80
2018-06-11T22:09:00.035Z,73.97
2018-06-11T22:11:28.171Z,77.70
2018-06-11T22:13:56.376Z,77.73
2018-06-11T22:16:24.494Z,72.67
2018-06-11T22:18:52.849Z,79.93
2018-06-11T22:21:20.976Z,84.40
2018-06-11T22:23:49.081Z,70.00
2018-06-11T22:26:17.477Z,69.37
2018-06-11T22:28:45.659Z,81.70
2018-06-11T22:31:13.910Z,71.93
2018-06-11T22:33:42.265Z,72.17
2018-06-11T22:36:10.615Z,69.83
2018-06-11T22:38:38.745Z,76.83
2018-06-11T22:41:07.093Z,80.43
2018-06-11T22:43:35.306Z,72.73
2018-06-11T22:46:03.495Z,71.07
2018-06-11T22:48:31.614Z,73.67
2018-06-11T22:50:59.797Z,77.10
2018-06-11T22:53:27.929Z,68.07
2018-06-11T22:55:56.106Z,66.17
2018-06-11T22:58:24.241Z,65.63
2018-06-11T23:00:52.366Z,64.10
2018-06-11T23:03:20.430Z,63.30
2018-06-11T23:05:53.593Z,62.67
2018-06-11T23:08:21.680Z,67.53
2018-06-11T23:10:49.838Z,66.07
2018-06-11T23:13:17.934Z,67.23
2018-06-11T23:15:46.050Z,67.70
2018-06-11T23:18:14.222Z,78.20
2018-06-11T23:20:42.417Z,67.17
2018-06-11T23:23:10.596Z,70.90
2018-06-11T23:25:45.684Z,70.43
2018-06-11T23:28:13.957Z,70.93
2018-06-11T23:30:42.161Z,66.43
2018-06-11T23:33:10.461Z,63.83
2018-06-11T23:35:38.739Z,65.60
2018-06-11T23:38:06.898Z,68.27
2018-06-11T23:40:35.102Z,71.60
2018-06-11T23:43:03.236Z,69.47
2018-06-11T23:45:31.341Z,75.03
2018-06-11T23:48:00.098Z,84.57
2018-06-11T23:50:28.229Z,81.90
2018-06-11T23:52:56.810Z,84.50
2018-06-11T23:55:25.024Z,84.83
2018-06-11T23:57:53.365Z,80.10
